Hastings Natural History Reservation, California Weather observations

Data are for 10 minute period ending at time listed.
 Day   Time   Solar   Ave.   Ave.  Ave.  Vector  Max.   Baro.   Total    
  of    of     Rad.   Air    Rel.  Wind   Wind   Wind  Press.  Precip.   
Year   Day            Temp.  Hum.  Speed  Dir.   Gust                    
2015   (PST)  Kw/m2    F      %     mph   deg.    mph    mb.     in.     
-------------------------------------------------------------------------
  26   23:10   0.00   50.3    58    0.7   192     1.8   953.0    0.00 
  26   23:20   0.00   50.3    58    0.5    36     1.9   953.1    0.00 
  26   23:30   0.00   51.0    56    0.4   101     1.7   953.2    0.00 
  26   23:40   0.00   50.7    57    0.6    56     1.7   953.3    0.00 
  26   23:50   0.00   50.7    59    0.3    54     1.3   953.4    0.00 
  27    0:00   0.00   50.2    61    0.7    67     1.7   953.4    0.00 
  27    0:10   0.00   50.4    60    0.5    55     2.1   953.4    0.00 
  27    0:20   0.00   51.2    58    0.3    50     2.0   953.4    0.00 
  27    0:30   0.00   50.7    60    0.7   222     1.5   953.5    0.00 
  27    0:40   0.00   51.0    57    0.9    49     3.1   953.6    0.00 
  27    0:50   0.00   51.4    57    0.4    93     1.5   953.6    0.00 
  27    1:00   0.00   51.6    57    1.9    50     3.3   953.6    0.00 
  27    1:10   0.00   52.2    56    0.6   241     2.7   953.7    0.00 
  27    1:20   0.00   51.5    56    0.8    48     1.8   953.8    0.00 
  27    1:30   0.00   52.0    55    0.7    53     1.7   953.8    0.00 
  27    1:40   0.00   51.7    57    0.1    53     1.2   953.8    0.00 
  27    1:50   0.00   51.5    56    0.0    62     0.7   953.8    0.00 
  27    2:00   0.00   51.6    56    1.0    61     2.2   953.8    0.00 
  27    2:10   0.00   52.0    55    0.4    44     1.3   953.9    0.00 
  27    2:20   0.00   52.0    56    0.8    50     2.7   954.0    0.00 
  27    2:30   0.00   52.7    54    1.1    65     2.5   954.2    0.00 
  27    2:40   0.00   54.8    46    2.2    60     3.8   954.3    0.00 
  27    2:50   0.00   55.4    48    1.2   239     2.9   954.5    0.00 
  27    3:00   0.00   54.0    51    1.3    54     2.4   954.6    0.00 
  27    3:10   0.00   55.4    46    0.7    63     2.7   954.7    0.00 
  27    3:20   0.00   55.8    48    0.6    58     2.0   954.9    0.00 
  27    3:30   0.00   55.7    48    0.8    62     3.4   955.1    0.00 
  27    3:40   0.00   55.6    47    2.0    64     3.7   955.1    0.00 
  27    3:50   0.00   57.2    44    1.9    60     5.0   955.2    0.00 
  27    4:00   0.00   57.5    44    1.4    59     3.6   955.1    0.00 
  27    4:10   0.00   57.8    44    2.5    53     6.4   955.1    0.00 
  27    4:20   0.00   58.0    43    1.8    55     5.9   955.2    0.00 
  27    4:30   0.00   57.9    43    1.3    58     4.4   955.0    0.00 
  27    4:40   0.00   57.1    46    0.8     3     2.4   955.1    0.00 
  27    4:50   0.00   56.2    47    1.4    40     3.2   955.2    0.00 
  27    5:00   0.00   57.2    46    1.7    24     6.9   955.4    0.00 
  27    5:10   0.00   57.4    47    0.7    15     3.0   955.5    0.00 
  27    5:20   0.00   56.8    48    2.1    35     5.0   955.5    0.00 
  27    5:30   0.00   56.5    49    2.1   244     4.9   955.6    0.00 
  27    5:40   0.00   55.9    51    0.5   322     2.8   955.7    0.00 
  27    5:50   0.00   55.3    52    0.8    58     2.2   955.7    0.00 
  27    6:00   0.00   54.8    53    0.6    43     2.6   955.8    0.00 
  27    6:10   0.00   54.3    54    0.3    40     1.3   955.8    0.00 
  27    6:20   0.00   54.1    54    0.6   345     2.3   955.9    0.00 
  27    6:30   0.00   54.3    54    1.2   266     3.9   956.0    0.00 
  27    6:40   0.00   54.3    55    0.7    53     2.1   956.2    0.00 
  27    6:50   0.00   54.3    55    0.4    61     1.5   956.3    0.00 
  27    7:00   0.00   54.0    56    2.1    62     4.1   956.4    0.00 
  27    7:10   0.00   54.3    56    1.3    65     3.6   956.6    0.00 
  27    7:20   0.00   54.2    56    3.2    53     6.8   956.6    0.00 
  27    7:30   0.00   54.1    57    2.2    62     4.0   956.8    0.00 
  27    7:40   0.00   53.7    56    2.9    62     5.9   956.8    0.00 
  27    7:50   0.00   54.3    52    1.2    70     3.1   956.8    0.00 
  27    8:00   0.00   54.2    54    0.8    48     3.6   956.9    0.00 
  27    8:10   0.00   54.1    55    0.8    67     2.4   957.1    0.00 
  27    8:20   0.00   53.5    57    0.5   232     2.0   957.2    0.00 
  27    8:30   0.00   52.9    58    0.9   159     2.3   957.5    0.00 
  27    8:40   0.01   52.9    60    1.1   253     2.6   957.7    0.00 
  27    8:50   0.01   53.3    58    2.0    68     6.2   957.9    0.00 
  27    9:00   0.03   54.7    56    2.0    24     5.3   958.0    0.00 
  27    9:10   0.03   54.3    59    1.4    49     2.9   958.0    0.00 
  27    9:20   0.04   54.2    60    0.2   238     1.5   958.0    0.00 
  27    9:30   0.04   54.3    60    0.0     1     0.7   958.2    0.00 
  27    9:40   0.06   54.4    62    1.2    49     2.4   958.2    0.00 
  27    9:50   0.07   55.2    57    0.8    51     2.2   958.2    0.00 
  27   10:00   0.08   56.0    56    0.7   135     2.4   958.2    0.00 
  27   10:10   0.09   56.3    57    0.5     4     3.7   958.2    0.00 
  27   10:20   0.06   56.3    57    1.3    11     3.5   958.3    0.00 
  27   10:30   0.05   56.0    58    1.3    33     4.3   958.4    0.00 
  27   10:40   0.07   55.9    58    1.2    52     5.0   958.6    0.00 
  27   10:50   0.13   56.3    58    0.8    14     3.9   958.8    0.00 
  27   11:00   0.19   56.9    57    0.9    48     3.8   958.8    0.00 
  27   11:10   0.15   57.2    56    1.0    40     4.8   958.9    0.00 
  27   11:20   0.11   56.9    56    1.3    17     3.8   959.0    0.00 
  27   11:30   0.09   57.2    56    1.3    16     4.6   959.2    0.00 
  27   11:40   0.09   57.2    56    1.0    45     4.2   959.3    0.00 
  27   11:50   0.10   57.2    56    1.6    66     6.2   959.3    0.00 
  27   12:00   0.10   57.4    57    1.0    33     3.9   959.3    0.00 
  27   12:10   0.11   57.8    56    0.7    60     3.4   959.4    0.00 
  27   12:20   0.07   57.5    56    0.9    82     3.2   959.4    0.00 
  27   12:30   0.07   57.3    57    1.2    92     3.9   959.3    0.00 
  27   12:40   0.08   57.3    57    1.1    51     3.4   959.3    0.00 
  27   12:50   0.10   57.6    57    2.0    35     4.5   959.2    0.00 
  27   13:00   0.12   58.0    55    1.4    33     4.7   959.0    0.00 
  27   13:10   0.14   58.2    55    0.8    17     2.6   959.0    0.00 
  27   13:20   0.20   58.9    54    1.0    13     3.4   958.9    0.00 
  27   13:30   0.19   59.2    52    1.0    48     3.4   958.7    0.00 
  27   13:40   0.19   59.3    52    1.2    67     3.8   958.6    0.00 
  27   13:50   0.20   60.0    51    0.7   111     3.2   958.5    0.00 
  27   14:00   0.24   60.7    49    1.2   100     3.5   958.3    0.00 
  27   14:10   0.24   61.7    46    1.5    38     4.5   958.2    0.00 
  27   14:20   0.19   62.0    43    1.9   294     4.5   958.0    0.00 
  27   14:30   0.16   61.6    42    3.4   245     6.3   957.9    0.00 
  27   14:40   0.12   61.7    42    2.3   264     5.5   957.9    0.00 
  27   14:50   0.14   62.0    41    1.2    64     8.1   958.0    0.00 
  27   15:00   0.13   61.8    40    2.3    53     6.2   958.0    0.00 
  27   15:10   0.17   61.7    47    1.5   238     3.9   958.0    0.00 
  27   15:20   0.22   61.2    50    3.5   228     6.7   958.0    0.00 
  27   15:30   0.27   61.6    49    2.7   250     6.0   958.0    0.00 
  27   15:40   0.34   62.3    48    3.5   254     6.8   957.9    0.00 
  27   15:50   0.29   62.6    48    3.3   260     8.3   957.8    0.00 
  27   16:00   0.24   61.9    50    3.4   256     9.8   957.8    0.00 
  27   16:10   0.31   61.3    51    3.6   264     9.3   957.9    0.00 
  27   16:20   0.34   61.6    50    4.0   253     9.6   958.0    0.00 
  27   16:30   0.16   59.8    54    4.6   250     8.6   958.0    0.00 
  27   16:40   0.12   59.0    57    2.7   252     8.3   958.3    0.00 
  27   16:50   0.08   58.1    58    4.7   250    10.6   958.5    0.00 
  27   17:00   0.06   57.8    59    1.5   305     5.9   958.6    0.00 
  27   17:10   0.04   57.7    60    1.5   265     4.6   958.7    0.00 
  27   17:20   0.04   57.5    60    2.5   245     5.4   958.8    0.00 
  27   17:30   0.03   57.3    58    2.5   228     6.1   958.8    0.00 
  27   17:40   0.05   57.7    55    1.3   231     3.3   958.8    0.00 
  27   17:50   0.04   57.9    54    1.8   238     2.7   958.8    0.00 
  27   18:00   0.03   57.7    53    1.4   243     3.2   958.8    0.00 
  27   18:10   0.01   57.5    53    0.0     0     0.0   958.9    0.00 
  27   18:20   0.00   56.8    55    0.2    68     0.8   958.9    0.00 
  27   18:30   0.00   56.0    57    0.2    50     1.4   958.9    0.00 
  27   18:40   0.00   55.3    60    1.3    46     2.0   959.0    0.00 
  27   18:50   0.00   54.6    62    0.9    48     1.8   959.1    0.00 
  27   19:00   0.00   54.3    63    0.4   310     1.3   959.1    0.00 
  27   19:10   0.00   53.9    63    0.9    67     2.3   959.1    0.00 
  27   19:20   0.00   54.0    62    1.0    70     3.1   959.1    0.00 
  27   19:30   0.00   53.8    63    0.9    68     2.0   959.2    0.00 
  27   19:40   0.00   53.5    64    0.2    12     0.9   959.2    0.00 
  27   19:50   0.00   53.0    65    0.0   231     0.7   959.4    0.00 
  27   20:00   0.00   52.6    65    0.2    47     1.3   959.4    0.00 
  27   20:10   0.00   52.3    66    0.0    50     0.6   959.4    0.00 
  27   20:20   0.00   52.1    66    0.1    53     1.0   959.5    0.00 
  27   20:30   0.00   51.8    67    0.5    46     1.1   959.5    0.00 
  27   20:40   0.00   51.5    67    0.0    39     0.8   959.6    0.00 
  27   20:50   0.00   51.3    68    0.9    43     1.5   959.7    0.00 
  27   21:00   0.00   51.2    68    0.9    48     1.7   959.7    0.00 
  27   21:10   0.00   50.6    69    0.0    12     0.4   959.7    0.00 
  27   21:20   0.00   49.7    70    0.1    45     1.0   959.8    0.00 
  27   21:30   0.00   48.9    71    0.7    53     2.0   959.8    0.00 
  27   21:40   0.00   47.7    73    0.8    75     2.9   960.0    0.00 
  27   21:50   0.00   47.2    74    1.1    93     3.4   960.1    0.00 
  27   22:00   0.00   48.4    69    3.5    87     6.8   960.3    0.00 
  27   22:10   0.00   49.4    67    2.4    70     4.2   960.3    0.00 
  27   22:20   0.00   49.0    66    2.9    86     4.3   960.3    0.00 
  27   22:30   0.00   48.7    68    2.4    65     4.7   960.2    0.00 
  27   22:40   0.00   47.1    72    1.2    75     3.2   960.2    0.00 
  27   22:50   0.00   45.9    74    1.0   104     5.0   960.0    0.00 
  27   23:00   0.00   44.1    78    0.1    48     0.9   960.0    0.00 

Return to Hastings Natural History Reservation graphs page.


Western Regional Climate Center,wrcc@dri.edu